createdAt,value
2022-08-03T00:01:52.987Z,57.01
2022-08-03T00:04:19.831Z,56.94
2022-08-03T00:06:46.502Z,56.73
2022-08-03T00:09:13.184Z,56.28
2022-08-03T00:11:39.996Z,56.20
2022-08-03T00:14:08.569Z,56.27
2022-08-03T00:16:36.182Z,56.29
2022-08-03T00:19:04.361Z,56.35
2022-08-03T00:21:31.033Z,56.40
2022-08-03T00:23:57.745Z,56.30
2022-08-03T00:26:24.513Z,56.29
2022-08-03T00:28:51.359Z,56.38
2022-08-03T00:31:22.273Z,56.61
2022-08-03T00:34:06.038Z,56.84
2022-08-03T00:36:33.705Z,56.97
2022-08-03T00:39:00.407Z,57.08
2022-08-03T00:41:27.299Z,57.07
2022-08-03T00:43:53.968Z,57.02
2022-08-03T00:46:22.407Z,56.96
2022-08-03T00:48:50.517Z,57.05
2022-08-03T00:51:18.589Z,57.36
2022-08-03T00:53:46.007Z,57.23
2022-08-03T00:56:17.447Z,57.06
2022-08-03T00:58:46.189Z,57.03
2022-08-03T01:01:15.344Z,56.98
2022-08-03T01:03:42.354Z,57.03
2022-08-03T01:06:25.692Z,57.00
2022-08-03T01:09:12.835Z,57.13
2022-08-03T01:12:01.039Z,57.17
2022-08-03T01:14:54.222Z,57.27
2022-08-03T01:17:33.462Z,57.31
2022-08-03T01:20:10.938Z,57.39
2022-08-03T01:22:51.204Z,57.53
2022-08-03T01:25:40.903Z,57.69
2022-08-03T01:28:23.118Z,57.88
2022-08-03T01:30:50.684Z,58.07
2022-08-03T01:33:26.315Z,58.20
2022-08-03T01:36:04.118Z,58.36
2022-08-03T01:38:48.482Z,58.41
2022-08-03T01:41:22.121Z,58.50
2022-08-03T01:44:27.356Z,58.51
2022-08-03T01:46:40.572Z,58.59
2022-08-03T01:49:17.488Z,58.71
2022-08-03T01:52:00.842Z,58.89
2022-08-03T01:54:38.151Z,58.95
2022-08-03T01:57:06.178Z,59.02
2022-08-03T01:59:35.920Z,59.08
2022-08-03T02:02:33.705Z,59.15
2022-08-03T02:04:54.591Z,59.25
2022-08-03T02:07:21.751Z,59.36
2022-08-03T02:09:53.230Z,59.44
2022-08-03T02:12:22.941Z,59.60
2022-08-03T02:14:50.862Z,59.74
2022-08-03T02:17:19.073Z,59.89
2022-08-03T02:20:07.296Z,59.97
2022-08-03T02:22:34.684Z,60.06
2022-08-03T02:25:01.902Z,60.16
2022-08-03T02:27:30.650Z,60.29
2022-08-03T02:30:06.121Z,60.43
2022-08-03T02:32:37.344Z,60.60
2022-08-03T02:35:06.620Z,60.77
2022-08-03T02:37:38.096Z,61.01
2022-08-03T02:40:12.111Z,61.15
2022-08-03T02:42:41.640Z,61.22
2022-08-03T02:45:14.321Z,61.29
2022-08-03T02:47:53.127Z,61.44
2022-08-03T02:50:22.450Z,61.50
2022-08-03T02:52:51.469Z,61.49
2022-08-03T02:55:22.789Z,61.28
2022-08-03T02:57:50.810Z,61.12
2022-08-03T03:00:19.434Z,60.87
2022-08-03T03:03:00.920Z,60.73
2022-08-03T03:05:55.894Z,60.79
2022-08-03T03:08:20.952Z,60.83
2022-08-03T03:10:56.010Z,60.92
2022-08-03T03:13:23.618Z,60.98
2022-08-03T03:15:52.327Z,61.08
2022-08-03T03:18:22.881Z,61.12
2022-08-03T03:20:52.767Z,61.12
2022-08-03T03:23:25.123Z,61.16
2022-08-03T03:25:53.380Z,61.12
2022-08-03T03:28:20.882Z,61.14
2022-08-03T03:30:52.822Z,61.17
2022-08-03T03:33:22.266Z,61.16
2022-08-03T03:35:49.904Z,61.11
2022-08-03T03:38:16.677Z,61.16
2022-08-03T03:40:43.960Z,61.16
2022-08-03T03:43:12.407Z,61.13
2022-08-03T03:45:43.056Z,61.14
2022-08-03T03:48:10.091Z,61.22
2022-08-03T03:50:40.903Z,61.29
2022-08-03T03:53:13.742Z,61.40
2022-08-03T03:56:02.064Z,61.41
2022-08-03T03:58:28.573Z,61.46
2022-08-03T04:00:55.477Z,61.49
2022-08-03T04:03:22.200Z,61.49
2022-08-03T04:06:09.540Z,61.42
2022-08-03T04:08:54.882Z,61.45
2022-08-03T04:11:29.089Z,61.38
2022-08-03T04:14:08.462Z,61.39
2022-08-03T04:16:43.438Z,61.43
2022-08-03T04:19:40.682Z,61.40
2022-08-03T04:22:12.181Z,61.45
2022-08-03T04:24:47.252Z,61.56
2022-08-03T04:27:18.166Z,61.66
2022-08-03T04:29:49.030Z,61.72
2022-08-03T04:32:17.791Z,62.04
2022-08-03T04:34:45.111Z,62.51
2022-08-03T04:37:30.549Z,62.83
2022-08-03T04:40:02.097Z,62.97
2022-08-03T04:42:31.367Z,63.01
2022-08-03T04:45:01.395Z,62.96
2022-08-03T04:47:32.778Z,62.99
2022-08-03T04:50:02.582Z,63.00
2022-08-03T04:52:30.394Z,63.07
2022-08-03T04:54:57.831Z,63.03
2022-08-03T04:57:24.593Z,63.02
2022-08-03T05:00:01.965Z,63.08
2022-08-03T05:02:31.380Z,63.09
2022-08-03T05:04:58.521Z,63.07
2022-08-03T05:07:25.513Z,63.02
2022-08-03T05:09:57.632Z,62.89
2022-08-03T05:12:32.777Z,62.70
2022-08-03T05:15:00.574Z,62.66
2022-08-03T05:17:28.626Z,62.69
2022-08-03T05:19:55.765Z,62.56
2022-08-03T05:22:23.809Z,62.44
2022-08-03T05:24:50.602Z,62.37
2022-08-03T05:27:20.021Z,62.26
2022-08-03T05:29:48.957Z,62.29
2022-08-03T05:32:19.539Z,62.18
2022-08-03T05:34:46.728Z,62.15
2022-08-03T05:37:13.392Z,61.87
2022-08-03T05:39:40.122Z,61.76
2022-08-03T05:42:08.789Z,61.63
2022-08-03T05:44:38.933Z,61.57
2022-08-03T05:47:06.100Z,61.37
2022-08-03T05:49:32.871Z,61.27
2022-08-03T05:52:00.286Z,61.08
2022-08-03T05:54:55.960Z,61.10
2022-08-03T05:57:26.293Z,60.88
2022-08-03T05:59:53.886Z,60.55
2022-08-03T06:02:26.981Z,60.26
2022-08-03T06:04:54.123Z,60.19
2022-08-03T06:07:21.063Z,59.34
2022-08-03T06:10:34.186Z,55.82
2022-08-03T06:12:39.013Z,51.94
2022-08-03T06:15:06.262Z,47.92
2022-08-03T06:17:46.583Z,44.69
2022-08-03T06:20:13.464Z,41.64
2022-08-03T06:22:47.693Z,39.49
2022-08-03T06:25:21.305Z,38.19
2022-08-03T06:27:48.222Z,37.02
2022-08-03T06:30:19.262Z,33.88
2022-08-03T06:32:52.007Z,34.92
2022-08-03T06:35:20.111Z,33.83
2022-08-03T06:37:50.570Z,31.49
2022-08-03T06:40:21.826Z,30.96
2022-08-03T06:42:51.185Z,29.52
2022-08-03T06:45:18.107Z,28.37
2022-08-03T06:47:44.723Z,27.09
2022-08-03T06:50:16.497Z,26.35
2022-08-03T06:52:45.609Z,26.05
2022-08-03T06:55:12.399Z,25.65
2022-08-03T06:57:39.018Z,25.28
2022-08-03T07:00:11.915Z,24.49
2022-08-03T07:02:40.032Z,23.61
2022-08-03T07:05:09.044Z,23.47
2022-08-03T07:07:36.977Z,23.76
2022-08-03T07:10:05.819Z,24.20
2022-08-03T07:12:34.613Z,23.31
2022-08-03T07:15:03.438Z,24.52
2022-08-03T07:17:34.525Z,24.56
2022-08-03T07:20:06.075Z,23.59
2022-08-03T07:22:33.566Z,22.75
2022-08-03T07:25:00.935Z,22.18
2022-08-03T07:27:29.501Z,23.31
2022-08-03T07:29:58.517Z,24.36
2022-08-03T07:32:25.438Z,25.47
2022-08-03T07:34:53.810Z,26.13
2022-08-03T07:37:22.458Z,26.48
2022-08-03T07:39:49.207Z,27.03
2022-08-03T07:42:16.005Z,27.22
2022-08-03T07:44:42.737Z,27.76
2022-08-03T07:47:09.525Z,28.56
2022-08-03T07:49:46.092Z,29.01
2022-08-03T07:52:31.648Z,29.93
2022-08-03T07:54:58.403Z,29.86
2022-08-03T07:57:25.118Z,29.79
2022-08-03T08:00:01.737Z,29.05
2022-08-03T08:02:38.921Z,27.76
2022-08-03T08:05:06.212Z,26.38
2022-08-03T08:07:33.303Z,25.10
2022-08-03T08:10:00.033Z,24.84
2022-08-03T08:12:26.763Z,23.67
2022-08-03T08:14:53.643Z,22.73
2022-08-03T08:17:21.846Z,23.25
2022-08-03T08:19:51.693Z,22.42
2022-08-03T08:22:29.843Z,21.44
2022-08-03T08:24:59.322Z,20.71
2022-08-03T08:27:26.296Z,21.40
2022-08-03T08:29:55.417Z,20.88
2022-08-03T08:32:24.327Z,20.26
2022-08-03T08:34:51.089Z,19.93
2022-08-03T08:37:17.998Z,19.75
2022-08-03T08:39:44.652Z,19.58
2022-08-03T08:42:11.446Z,18.97
2022-08-03T08:44:38.168Z,18.91
2022-08-03T08:47:05.144Z,18.94
2022-08-03T08:49:35.616Z,19.63
2022-08-03T08:52:24.936Z,19.10
2022-08-03T08:55:05.642Z,18.53
2022-08-03T08:57:45.069Z,18.82
2022-08-03T09:00:15.355Z,18.37
2022-08-03T09:02:44.441Z,17.64
2022-08-03T09:05:18.475Z,17.58
2022-08-03T09:07:47.830Z,17.43
2022-08-03T09:10:21.932Z,16.87
2022-08-03T09:12:52.876Z,16.32
2022-08-03T09:15:28.616Z,16.53
2022-08-03T09:17:58.860Z,16.48
2022-08-03T09:20:28.854Z,15.98
2022-08-03T09:23:09.693Z,15.69
2022-08-03T09:26:00.002Z,14.98
2022-08-03T09:29:00.519Z,15.38
2022-08-03T09:31:35.907Z,15.16
2022-08-03T09:34:09.515Z,14.93
2022-08-03T09:36:47.593Z,14.63
2022-08-03T09:39:37.533Z,15.12
2022-08-03T09:42:23.773Z,14.95
2022-08-03T09:44:52.471Z,14.71
2022-08-03T09:47:29.788Z,15.44
2022-08-03T09:50:07.355Z,15.72
2022-08-03T09:52:52.033Z,16.28
2022-08-03T09:56:35.081Z,16.28
2022-08-03T09:58:14.321Z,16.40
2022-08-03T10:01:04.101Z,16.58
2022-08-03T10:03:46.979Z,17.20
2022-08-03T10:06:28.796Z,17.53
2022-08-03T10:09:14.208Z,17.70
2022-08-03T10:11:42.740Z,18.31
2022-08-03T10:14:18.762Z,19.35
2022-08-03T10:16:48.372Z,19.81
2022-08-03T10:19:16.504Z,20.26
2022-08-03T10:21:51.467Z,20.17
2022-08-03T10:24:26.029Z,20.45
2022-08-03T10:27:00.716Z,21.01
2022-08-03T10:29:29.133Z,20.79
2022-08-03T10:31:59.538Z,20.78
2022-08-03T10:34:29.807Z,20.47
2022-08-03T10:36:59.271Z,20.63
2022-08-03T10:39:30.038Z,21.40
2022-08-03T10:42:00.050Z,21.39
2022-08-03T10:44:38.065Z,21.81
2022-08-03T10:47:05.267Z,21.75
2022-08-03T10:49:34.667Z,21.88
2022-08-03T10:52:13.151Z,22.24
2022-08-03T10:55:10.903Z,22.14
2022-08-03T10:57:58.526Z,22.02
2022-08-03T11:00:30.085Z,22.25
2022-08-03T11:03:04.157Z,21.81
2022-08-03T11:05:54.490Z,21.56
2022-08-03T11:08:32.593Z,21.28
2022-08-03T11:11:23.930Z,21.40
2022-08-03T11:14:04.624Z,21.63
2022-08-03T11:16:38.132Z,22.10
2022-08-03T11:19:08.933Z,22.00
2022-08-03T11:21:50.883Z,22.53
2022-08-03T11:24:47.345Z,22.62
2022-08-03T11:27:18.991Z,22.98
2022-08-03T11:30:17.483Z,23.30
2022-08-03T11:32:46.689Z,23.57
2022-08-03T11:35:31.006Z,23.74
2022-08-03T11:38:03.136Z,23.56
2022-08-03T11:40:44.549Z,23.67
2022-08-03T11:43:11.266Z,23.89
2022-08-03T11:45:38.326Z,24.14
2022-08-03T11:48:16.865Z,24.09
2022-08-03T11:50:45.402Z,23.77
2022-08-03T11:53:19.429Z,23.50
2022-08-03T11:55:53.209Z,23.41
2022-08-03T11:59:15.329Z,23.61
2022-08-03T12:01:11.490Z,23.54
2022-08-03T12:03:38.184Z,23.49
2022-08-03T12:06:11.492Z,23.57
2022-08-03T12:08:40.546Z,23.56
2022-08-03T12:11:10.774Z,23.27
2022-08-03T12:14:27.079Z,23.24
2022-08-03T12:16:29.028Z,23.41
2022-08-03T12:19:02.025Z,23.30
2022-08-03T12:21:29.635Z,23.02
2022-08-03T12:24:00.209Z,23.05
2022-08-03T12:26:28.727Z,23.00
2022-08-03T12:28:55.930Z,22.76
2022-08-03T12:31:22.788Z,22.61
2022-08-03T12:34:05.221Z,22.61
2022-08-03T12:36:35.627Z,22.60
2022-08-03T12:39:06.628Z,22.57
2022-08-03T12:41:39.294Z,22.64
2022-08-03T12:44:09.093Z,22.56
2022-08-03T12:46:46.925Z,22.51
2022-08-03T12:49:17.361Z,22.59
2022-08-03T12:51:43.949Z,22.46
2022-08-03T12:54:17.883Z,22.56
2022-08-03T12:57:10.519Z,22.52
2022-08-03T12:59:49.858Z,22.40
2022-08-03T13:02:24.346Z,22.44
2022-08-03T13:04:53.932Z,22.16
2022-08-03T13:07:22.886Z,22.02
2022-08-03T13:09:53.230Z,21.87
2022-08-03T13:12:25.764Z,21.86
2022-08-03T13:14:56.771Z,21.87
2022-08-03T13:17:24.737Z,21.73
2022-08-03T13:19:51.965Z,21.71
2022-08-03T13:22:25.569Z,21.81
2022-08-03T13:24:58.236Z,21.52
2022-08-03T13:28:09.918Z,21.26
2022-08-03T13:30:13.517Z,21.29
2022-08-03T13:32:45.242Z,21.26
2022-08-03T13:35:12.109Z,21.37
2022-08-03T13:37:43.251Z,21.59
2022-08-03T13:40:14.759Z,21.60
2022-08-03T13:42:41.548Z,21.78
2022-08-03T13:45:09.761Z,21.89
2022-08-03T13:47:37.832Z,22.02
2022-08-03T13:50:05.093Z,21.91
2022-08-03T13:52:34.839Z,22.26
2022-08-03T13:55:06.397Z,22.60
2022-08-03T13:58:04.668Z,22.70
2022-08-03T14:00:27.874Z,22.78
2022-08-03T14:03:09.078Z,22.64
2022-08-03T14:05:40.931Z,22.77
2022-08-03T14:08:08.540Z,22.75
2022-08-03T14:10:42.586Z,22.53
2022-08-03T14:13:12.902Z,22.44
2022-08-03T14:15:49.898Z,22.68
2022-08-03T14:18:29.136Z,23.12
2022-08-03T14:21:05.855Z,22.98
2022-08-03T14:23:34.769Z,22.74
2022-08-03T14:26:01.648Z,22.75
2022-08-03T14:28:28.792Z,22.76
2022-08-03T14:30:56.171Z,22.72
2022-08-03T14:33:24.340Z,22.73
2022-08-03T14:35:51.990Z,22.98
2022-08-03T14:38:20.094Z,22.88
2022-08-03T14:40:47.449Z,22.71
2022-08-03T14:43:15.363Z,22.95
2022-08-03T14:45:42.893Z,23.17
2022-08-03T14:50:24.994Z,23.33
2022-08-03T14:50:56.736Z,23.52
2022-08-03T14:53:24.398Z,23.34
2022-08-03T14:55:53.636Z,23.24
2022-08-03T14:58:28.002Z,23.29
2022-08-03T15:00:55.932Z,22.98
2022-08-03T15:03:25.070Z,22.86
2022-08-03T15:05:56.233Z,22.82
2022-08-03T15:08:25.223Z,22.70
2022-08-03T15:10:53.897Z,22.75
2022-08-03T15:13:22.055Z,22.91
2022-08-03T15:15:49.880Z,23.05
2022-08-03T15:18:16.675Z,23.12
2022-08-03T15:20:45.453Z,22.99
2022-08-03T15:23:15.499Z,23.01
2022-08-03T15:26:28.678Z,23.06
2022-08-03T15:28:31.925Z,23.16
2022-08-03T15:30:58.839Z,23.04
2022-08-03T15:33:25.571Z,23.00
2022-08-03T15:35:53.055Z,23.21
2022-08-03T15:38:19.845Z,23.36
2022-08-03T15:40:46.664Z,23.46
2022-08-03T15:43:13.303Z,23.49
2022-08-03T15:45:41.860Z,23.61
2022-08-03T15:48:08.944Z,24.01
2022-08-03T15:50:36.049Z,24.14
2022-08-03T15:53:03.553Z,24.14
2022-08-03T15:55:31.222Z,24.08
2022-08-03T15:59:12.117Z,24.08
2022-08-03T16:00:44.814Z,24.11
2022-08-03T16:03:11.622Z,24.05
2022-08-03T16:05:38.416Z,24.08
2022-08-03T16:08:08.015Z,24.11
2022-08-03T16:10:39.614Z,24.00
2022-08-03T16:13:07.274Z,24.08
2022-08-03T16:15:38.490Z,24.52
2022-08-03T16:18:07.121Z,24.73
2022-08-03T16:20:35.316Z,24.76
2022-08-03T16:23:10.495Z,24.49
2022-08-03T16:25:42.291Z,24.58
2022-08-03T16:28:13.744Z,24.47
2022-08-03T16:30:45.280Z,24.49
2022-08-03T16:33:17.076Z,24.50
2022-08-03T16:35:46.756Z,24.60
2022-08-03T16:38:18.325Z,24.77
2022-08-03T16:40:46.929Z,24.87
2022-08-03T16:43:18.503Z,24.87
2022-08-03T16:45:47.624Z,25.06
2022-08-03T16:48:16.076Z,25.12
2022-08-03T16:50:44.348Z,25.35
2022-08-03T16:53:16.328Z,25.43
2022-08-03T16:55:52.107Z,25.76
2022-08-03T16:58:34.253Z,25.97
2022-08-03T17:01:24.708Z,26.05
2022-08-03T17:04:02.140Z,26.16
2022-08-03T17:06:36.688Z,26.46
2022-08-03T17:09:10.514Z,26.53
2022-08-03T17:11:47.233Z,26.60
2022-08-03T17:14:22.889Z,26.79
2022-08-03T17:17:03.805Z,27.07
2022-08-03T17:19:32.679Z,27.19
2022-08-03T17:22:12.226Z,27.16
2022-08-03T17:24:46.284Z,27.35
2022-08-03T17:28:49.399Z,27.55
2022-08-03T17:30:13.502Z,27.63
2022-08-03T17:32:56.915Z,27.76
2022-08-03T17:35:34.430Z,27.84
2022-08-03T17:38:06.581Z,27.93
2022-08-03T17:40:34.545Z,28.01
2022-08-03T17:44:13.421Z,28.20
2022-08-03T17:45:54.887Z,28.31
2022-08-03T17:48:25.149Z,28.36
2022-08-03T17:51:07.814Z,28.45
2022-08-03T17:53:58.644Z,28.63
2022-08-03T17:56:46.057Z,28.82
2022-08-03T17:59:50.653Z,28.85
2022-08-03T18:03:18.165Z,28.98
2022-08-03T18:06:09.005Z,29.18
2022-08-03T18:09:05.203Z,29.29
2022-08-03T18:11:58.095Z,29.53
2022-08-03T18:14:57.781Z,29.58
2022-08-03T18:17:55.479Z,29.67
2022-08-03T18:20:33.030Z,29.75
2022-08-03T18:23:04.752Z,29.76
2022-08-03T18:25:42.983Z,29.80
2022-08-03T18:28:18.530Z,29.92
2022-08-03T18:30:54.513Z,29.98
2022-08-03T18:34:19.856Z,30.04
2022-08-03T18:36:21.744Z,30.22
2022-08-03T18:39:02.629Z,30.39
2022-08-03T18:41:35.070Z,30.45
2022-08-03T18:44:07.982Z,30.52
2022-08-03T18:46:54.866Z,30.64
2022-08-03T18:50:02.936Z,30.69
2022-08-03T18:52:45.863Z,30.75
2022-08-03T18:55:35.990Z,30.84
2022-08-03T18:58:25.889Z,30.94
2022-08-03T19:02:00.291Z,31.04
2022-08-03T19:04:34.666Z,31.30
2022-08-03T19:07:11.235Z,31.44
2022-08-03T19:10:09.335Z,31.41
2022-08-03T19:12:56.247Z,31.67
2022-08-03T19:15:29.277Z,31.85
2022-08-03T19:18:08.810Z,31.99
2022-08-03T19:20:37.963Z,32.11
2022-08-03T19:23:04.681Z,32.29
2022-08-03T19:25:40.261Z,32.34
2022-08-03T19:28:08.858Z,32.45
2022-08-03T19:30:40.387Z,32.62
2022-08-03T19:33:13.872Z,32.84
2022-08-03T19:35:54.868Z,32.91
2022-08-03T19:38:29.254Z,33.03
2022-08-03T19:41:02.541Z,33.29
2022-08-03T19:43:49.417Z,33.50
2022-08-03T19:46:30.340Z,33.74
2022-08-03T19:49:15.462Z,33.87
2022-08-03T19:54:54.140Z,34.20
2022-08-03T19:57:24.809Z,34.29
2022-08-03T19:59:54.067Z,34.48
2022-08-03T20:02:27.125Z,34.66
2022-08-03T20:04:57.992Z,34.79
2022-08-03T20:07:33.450Z,34.89
2022-08-03T20:10:04.468Z,35.09
2022-08-03T20:12:38.909Z,35.26
2022-08-03T20:15:07.762Z,35.44
2022-08-03T20:17:54.384Z,35.57
2022-08-03T20:20:36.384Z,35.73
2022-08-03T20:23:18.269Z,35.84
2022-08-03T20:25:58.289Z,35.96
2022-08-03T20:28:50.180Z,36.13
2022-08-03T20:31:32.657Z,36.29
2022-08-03T20:34:04.285Z,36.40
2022-08-03T20:36:30.947Z,36.55
2022-08-03T20:38:58.756Z,36.61
2022-08-03T20:41:26.639Z,36.69
2022-08-03T20:43:53.558Z,36.80
2022-08-03T20:46:32.035Z,36.99
2022-08-03T20:49:05.471Z,37.05
2022-08-03T20:51:49.618Z,37.24
2022-08-03T20:54:30.826Z,37.32
2022-08-03T20:57:03.478Z,37.44
2022-08-03T20:59:47.589Z,37.55
2022-08-03T21:05:09.909Z,38.07
2022-08-03T21:10:33.614Z,38.30
2022-08-03T21:13:03.089Z,34.02
2022-08-03T21:13:08.030Z,38.11
2022-08-03T21:13:13.905Z,37.76
2022-08-03T21:16:11.205Z,38.50
2022-08-03T21:18:50.076Z,38.70
2022-08-03T21:21:20.332Z,38.78
2022-08-03T21:23:53.783Z,38.92
2022-08-03T21:26:23.867Z,39.10
2022-08-03T21:28:54.337Z,39.17
2022-08-03T21:31:24.607Z,39.36
2022-08-03T21:33:59.770Z,39.48
2022-08-03T21:36:30.146Z,39.64
2022-08-03T21:38:58.804Z,39.81
2022-08-03T21:41:28.627Z,40.02
2022-08-03T21:43:55.929Z,40.20
2022-08-03T21:46:23.840Z,40.37
2022-08-03T21:50:07.502Z,40.43
2022-08-03T21:51:52.236Z,40.61
2022-08-03T21:54:21.089Z,40.70
2022-08-03T21:56:51.168Z,40.85
2022-08-03T21:59:20.408Z,40.98
2022-08-03T22:01:51.397Z,41.14
2022-08-03T22:04:50.178Z,41.29
2022-08-03T22:07:09.210Z,41.50
2022-08-03T22:09:36.980Z,41.61
2022-08-03T22:12:04.611Z,41.81
2022-08-03T22:14:34.195Z,41.97
2022-08-03T22:17:06.222Z,42.15
2022-08-03T22:19:33.089Z,42.29
2022-08-03T22:22:00.646Z,42.46
2022-08-03T22:24:30.179Z,42.61
2022-08-03T22:27:20.475Z,42.72
2022-08-03T22:29:50.182Z,42.92
2022-08-03T22:32:16.885Z,43.08
2022-08-03T22:34:47.370Z,43.22
2022-08-03T22:37:17.888Z,43.38
2022-08-03T22:39:44.778Z,43.57
2022-08-03T22:42:12.598Z,43.74
2022-08-03T22:44:39.701Z,43.87
2022-08-03T22:47:07.350Z,44.04
2022-08-03T22:49:35.488Z,44.17
2022-08-03T22:52:03.024Z,44.36
2022-08-03T22:54:33.309Z,44.49
2022-08-03T22:57:00.991Z,44.67
2022-08-03T22:59:40.257Z,44.76
2022-08-03T23:02:21.021Z,44.94
2022-08-03T23:04:53.303Z,45.12
2022-08-03T23:07:29.103Z,45.26
2022-08-03T23:09:57.892Z,45.37
2022-08-03T23:12:25.457Z,45.48
2022-08-03T23:14:56.834Z,45.65
2022-08-03T23:17:27.166Z,45.84
2022-08-03T23:19:57.992Z,46.00
2022-08-03T23:22:30.112Z,46.18
2022-08-03T23:24:59.676Z,46.32
2022-08-03T23:27:27.869Z,46.44
2022-08-03T23:29:57.626Z,46.62
2022-08-03T23:32:30.656Z,46.79
2022-08-03T23:35:20.312Z,46.90
2022-08-03T23:38:04.740Z,47.12
2022-08-03T23:40:36.950Z,47.30
2022-08-03T23:43:04.855Z,47.47
2022-08-03T23:45:35.866Z,47.65
2022-08-03T23:48:02.479Z,47.88
2022-08-03T23:50:42.348Z,48.07
2022-08-03T23:53:39.658Z,48.24
2022-08-03T23:56:18.679Z,48.29
2022-08-03T23:59:16.792Z,48.39
